Time;durP1;ratioP1;P1;durP2;ratioP2;P2;SDS_P1;SDS_P2;PMS_P1;PMS_P2;Temp;Humidity;BMP_temperature;BMP_pressure;BME280_temperature;BME280_humidity;BME280_pressure;Samples;Min_cycle;Max_cycle;Signal;HPM_P1;HPM_P2
2022/03/21 00:00:57;;;;;;;33.92;17.02;;;;;;;;;;7371332;19;20014;-73
2022/03/21 00:03:24;;;;;;;31.15;16.45;;;;;;;;;;7375677;19;20007;-74
2022/03/21 00:05:49;;;;;;;34.03;17.50;;;;;;;;;;7366981;19;20050;-73
2022/03/21 00:08:17;;;;;;;30.52;15.45;;;;;;;;;;7367290;19;20023;-76
2022/03/21 00:10:42;;;;;;;31.38;17.33;;;;;;;;;;7367011;19;20003;-74
2022/03/21 00:13:08;;;;;;;30.65;16.17;;;;;;;;;;7373556;19;20080;-74
2022/03/21 00:15:34;;;;;;;32.53;16.20;;;;;;;;;;7371325;19;20465;-73
2022/03/21 00:18:01;;;;;;;32.92;17.30;;;;;;;;;;7384613;19;20018;-73
2022/03/21 00:20:26;;;;;;;30.60;17.02;;;;;;;;;;7388978;19;20019;-73
2022/03/21 00:22:52;;;;;;;27.80;16.63;;;;;;;;;;7377125;19;20015;-73
2022/03/21 00:25:18;;;;;;;27.63;14.85;;;;;;;;;;7388032;19;20013;-77
2022/03/21 00:27:44;;;;;;;29.75;16.33;;;;;;;;;;7381141;19;20031;-75
2022/03/21 00:30:09;;;;;;;30.70;15.65;;;;;;;;;;7383141;19;20111;-73
2022/03/21 00:32:34;;;;;;;26.67;15.23;;;;;;;;;;7370830;19;20015;-73
2022/03/21 00:35:00;;;;;;;30.20;15.95;;;;;;;;;;7380601;19;20121;-74
2022/03/21 00:37:26;;;;;;;31.40;16.03;;;;;;;;;;7374629;19;20010;-76
2022/03/21 00:39:51;;;;;;;31.52;15.93;;;;;;;;;;7386337;19;20250;-73
2022/03/21 00:42:17;;;;;;;30.63;15.35;;;;;;;;;;7389157;19;20536;-75
2022/03/21 00:44:42;;;;;;;32.70;16.17;;;;;;;;;;7385177;19;20112;-73
2022/03/21 00:47:07;;;;;;;29.20;15.10;;;;;;;;;;7388403;19;20008;-74
2022/03/21 00:49:33;;;;;;;28.00;14.80;;;;;;;;;;7387155;19;20097;-77
2022/03/21 00:51:58;;;;;;;30.33;14.90;;;;;;;;;;7382239;19;20331;-73
2022/03/21 00:54:23;;;;;;;28.13;14.57;;;;;;;;;;7382849;19;20298;-77
2022/03/21 00:56:48;;;;;;;31.20;15.70;;;;;;;;;;7385765;19;20719;-72
2022/03/21 00:59:13;;;;;;;29.52;15.70;;;;;;;;;;7383920;19;20251;-74
2022/03/21 01:01:39;;;;;;;26.02;13.85;;;;;;;;;;7383774;19;19999;-72
2022/03/21 01:04:04;;;;;;;31.83;15.23;;;;;;;;;;7384375;19;20023;-74
2022/03/21 01:06:29;;;;;;;30.23;14.90;;;;;;;;;;7377700;19;20034;-77
2022/03/21 01:08:54;;;;;;;29.75;15.13;;;;;;;;;;7383317;19;20018;-73
2022/03/21 01:11:19;;;;;;;28.53;14.73;;;;;;;;;;7386280;19;20430;-74
2022/03/21 01:13:44;;;;;;;26.63;14.13;;;;;;;;;;7385775;19;20261;-76
2022/03/21 01:16:10;;;;;;;29.20;15.60;;;;;;;;;;7379990;19;20852;-73
2022/03/21 01:18:36;;;;;;;32.30;16.40;;;;;;;;;;7384055;19;20015;-76
2022/03/21 01:21:01;;;;;;;29.27;15.27;;;;;;;;;;7385084;19;20567;-75
2022/03/21 01:23:26;;;;;;;26.25;14.48;;;;;;;;;;7384841;19;20016;-73
2022/03/21 01:25:51;;;;;;;27.90;14.67;;;;;;;;;;7385636;19;20003;-73
2022/03/21 01:28:17;;;;;;;29.25;14.80;;;;;;;;;;7378153;19;20267;-73
2022/03/21 01:30:42;;;;;;;31.00;15.98;;;;;;;;;;7373076;19;20024;-75
2022/03/21 01:33:07;;;;;;;25.35;14.00;;;;;;;;;;7382602;19;20013;-72
2022/03/21 01:35:33;;;;;;;30.55;15.63;;;;;;;;;;7375806;19;20396;-77
2022/03/21 01:37:58;;;;;;;26.92;13.88;;;;;;;;;;7377878;19;20019;-75
2022/03/21 01:40:23;;;;;;;31.63;14.18;;;;;;;;;;7379926;19;20012;-74
2022/03/21 01:42:49;;;;;;;33.20;15.55;;;;;;;;;;7379856;19;20019;-76
2022/03/21 01:45:14;;;;;;;32.72;14.60;;;;;;;;;;7377195;19;20007;-73
2022/03/21 01:47:39;;;;;;;28.23;14.00;;;;;;;;;;7375421;19;20017;-77
2022/03/21 01:50:06;;;;;;;29.60;14.93;;;;;;;;;;7340380;19;20537;-77
2022/03/21 01:52:31;;;;;;;34.13;15.73;;;;;;;;;;7350718;19;20018;-75
2022/03/21 01:57:41;;;;;;;29.35;14.40;;;;;;;;;;7375294;19;20015;-75
2022/03/21 02:00:07;;;;;;;32.78;15.00;;;;;;;;;;7373253;19;20504;-75
2022/03/21 02:02:33;;;;;;;33.95;15.30;;;;;;;;;;7373044;19;20027;-78
2022/03/21 02:04:58;;;;;;;33.13;15.40;;;;;;;;;;7363809;19;20018;-81
2022/03/21 02:07:25;;;;;;;28.00;14.35;;;;;;;;;;7368770;19;20014;-76
2022/03/21 02:09:50;;;;;;;25.45;13.07;;;;;;;;;;7369589;19;20830;-77
2022/03/21 02:12:15;;;;;;;30.52;15.27;;;;;;;;;;7364066;19;20387;-81
2022/03/21 02:14:41;;;;;;;30.90;15.07;;;;;;;;;;7367307;19;20051;-73
2022/03/21 02:17:06;;;;;;;27.15;13.75;;;;;;;;;;7374573;19;20752;-78
2022/03/21 02:19:32;;;;;;;27.83;15.18;;;;;;;;;;7378288;19;20002;-74
2022/03/21 02:21:57;;;;;;;26.73;14.10;;;;;;;;;;7370324;19;20465;-76
2022/03/21 02:24:30;;;;;;;29.63;14.75;;;;;;;;;;7374565;19;20003;-75
2022/03/21 02:26:56;;;;;;;28.30;14.38;;;;;;;;;;7381171;19;20252;-74
2022/03/21 02:29:22;;;;;;;28.65;14.18;;;;;;;;;;7377704;19;20014;-75
2022/03/21 02:31:48;;;;;;;28.88;13.85;;;;;;;;;;7365856;19;20013;-74
2022/03/21 02:34:13;;;;;;;26.73;14.68;;;;;;;;;;7371626;19;20346;-78
2022/03/21 02:36:38;;;;;;;31.60;16.27;;;;;;;;;;7367779;19;20026;-75
2022/03/21 02:39:04;;;;;;;33.35;14.80;;;;;;;;;;7370405;19;20553;-76
2022/03/21 02:41:29;;;;;;;26.75;13.63;;;;;;;;;;7372502;19;20098;-75
2022/03/21 02:43:55;;;;;;;27.38;14.40;;;;;;;;;;7379228;19;20056;-76
2022/03/21 02:46:21;;;;;;;35.40;15.13;;;;;;;;;;7373518;19;20078;-77
2022/03/21 02:48:46;;;;;;;35.05;16.27;;;;;;;;;;7374027;19;20048;-76
2022/03/21 02:51:12;;;;;;;34.47;15.55;;;;;;;;;;7368342;19;20533;-77
2022/03/21 02:53:38;;;;;;;31.92;14.43;;;;;;;;;;7376407;19;20327;-77
2022/03/21 02:56:03;;;;;;;31.58;15.35;;;;;;;;;;7369265;19;20305;-71
2022/03/21 02:58:28;;;;;;;26.70;13.65;;;;;;;;;;7366247;19;20027;-77
2022/03/21 03:01:05;;;;;;;32.88;16.42;;;;;;;;;;7364390;19;20011;-79
2022/03/21 03:03:30;;;;;;;32.50;16.48;;;;;;;;;;7370583;19;20014;-76
2022/03/21 03:05:55;;;;;;;30.27;15.40;;;;;;;;;;7363477;19;20409;-74
2022/03/21 03:08:21;;;;;;;30.10;16.63;;;;;;;;;;7368787;19;20652;-73
2022/03/21 03:10:46;;;;;;;35.75;16.27;;;;;;;;;;7373986;19;20053;-73
2022/03/21 03:13:11;;;;;;;30.10;14.50;;;;;;;;;;7363711;19;20007;-76
2022/03/21 03:15:36;;;;;;;38.60;17.05;;;;;;;;;;7372593;19;20374;-73
2022/03/21 03:18:01;;;;;;;27.63;14.50;;;;;;;;;;7372971;19;20006;-73
2022/03/21 03:20:27;;;;;;;30.90;16.08;;;;;;;;;;7369861;19;20006;-76
2022/03/21 03:22:52;;;;;;;36.22;19.25;;;;;;;;;;7375166;19;20003;-74
2022/03/21 03:25:18;;;;;;;33.55;17.30;;;;;;;;;;7375289;19;20006;-74
2022/03/21 03:27:43;;;;;;;37.80;17.13;;;;;;;;;;7375472;19;20090;-77
2022/03/21 03:30:09;;;;;;;32.00;15.85;;;;;;;;;;7368728;19;20516;-75
2022/03/21 03:32:34;;;;;;;33.90;17.98;;;;;;;;;;7375476;19;19999;-77
2022/03/21 03:34:59;;;;;;;33.28;17.15;;;;;;;;;;7371171;19;20493;-80
2022/03/21 03:37:24;;;;;;;40.25;20.58;;;;;;;;;;7377260;19;20005;-75
2022/03/21 03:39:49;;;;;;;41.53;20.25;;;;;;;;;;7376299;19;20021;-74
2022/03/21 03:42:15;;;;;;;41.67;19.05;;;;;;;;;;7378391;19;20025;-78
2022/03/21 03:44:40;;;;;;;39.00;18.80;;;;;;;;;;7369148;19;20077;-78
2022/03/21 03:47:05;;;;;;;36.25;18.17;;;;;;;;;;7374456;19;20003;-73
2022/03/21 03:49:30;;;;;;;35.42;17.38;;;;;;;;;;7369478;19;20003;-73
2022/03/21 03:51:56;;;;;;;35.70;17.83;;;;;;;;;;7349149;19;20001;-81
2022/03/21 03:54:21;;;;;;;36.35;17.67;;;;;;;;;;7374114;19;20021;-76
2022/03/21 03:56:46;;;;;;;38.30;18.13;;;;;;;;;;7371274;19;20022;-78
2022/03/21 03:59:11;;;;;;;33.13;17.17;;;;;;;;;;7367210;19;20319;-78
2022/03/21 04:01:39;;;;;;;38.08;18.42;;;;;;;;;;7374763;19;20536;-76
2022/03/21 04:04:04;;;;;;;36.55;18.48;;;;;;;;;;7368157;19;20014;-74
2022/03/21 04:06:30;;;;;;;33.65;17.70;;;;;;;;;;7369066;19;20014;-74
2022/03/21 04:08:55;;;;;;;35.97;18.73;;;;;;;;;;7375409;19;20094;-77
2022/03/21 04:11:20;;;;;;;35.63;18.58;;;;;;;;;;7371378;19;20007;-74
2022/03/21 04:13:46;;;;;;;41.75;20.00;;;;;;;;;;7363611;19;20610;-74
2022/03/21 04:16:12;;;;;;;44.75;21.38;;;;;;;;;;7367098;19;20100;-74
2022/03/21 04:18:38;;;;;;;36.17;20.08;;;;;;;;;;7372276;19;19999;-74
2022/03/21 04:21:03;;;;;;;41.05;20.48;;;;;;;;;;7365935;19;20341;-73
2022/03/21 04:23:29;;;;;;;37.78;19.77;;;;;;;;;;7373825;19;20006;-74
2022/03/21 04:25:54;;;;;;;34.97;18.20;;;;;;;;;;7369014;19;19999;-78
2022/03/21 04:28:19;;;;;;;37.15;18.75;;;;;;;;;;7364247;19;20086;-76
2022/03/21 04:30:44;;;;;;;37.80;18.38;;;;;;;;;;7365476;19;20016;-80
2022/03/21 04:33:10;;;;;;;32.45;17.75;;;;;;;;;;7370028;19;20019;-74
2022/03/21 04:35:36;;;;;;;36.03;18.15;;;;;;;;;;7366566;19;20379;-74
2022/03/21 04:38:02;;;;;;;36.70;17.95;;;;;;;;;;7375278;19;20014;-73
2022/03/21 04:40:27;;;;;;;38.67;18.92;;;;;;;;;;7371397;19;20045;-74
2022/03/21 04:42:52;;;;;;;37.75;18.50;;;;;;;;;;7373427;19;20472;-77
2022/03/21 04:45:18;;;;;;;35.63;18.13;;;;;;;;;;7362527;19;20426;-73
2022/03/21 04:47:44;;;;;;;37.83;18.70;;;;;;;;;;7372760;19;20437;-74
2022/03/21 04:50:09;;;;;;;36.45;18.02;;;;;;;;;;7369166;19;20018;-77
2022/03/21 04:52:35;;;;;;;41.03;20.45;;;;;;;;;;7375187;19;20041;-74
2022/03/21 04:55:01;;;;;;;38.05;19.00;;;;;;;;;;7374086;19;20375;-74
2022/03/21 04:57:26;;;;;;;36.38;19.35;;;;;;;;;;7374858;19;20018;-78
2022/03/21 04:59:52;;;;;;;39.55;19.95;;;;;;;;;;7370178;19;20469;-77
2022/03/21 05:02:17;;;;;;;40.83;19.17;;;;;;;;;;7373918;19;20014;-76
2022/03/21 05:04:42;;;;;;;37.08;18.70;;;;;;;;;;7379916;19;20096;-75
2022/03/21 05:07:11;;;;;;;37.13;19.02;;;;;;;;;;7370358;19;20033;-76
2022/03/21 05:09:39;;;;;;;41.50;22.13;;;;;;;;;;7375674;19;20354;-78
2022/03/21 05:12:04;;;;;;;40.00;19.23;;;;;;;;;;7377893;19;20019;-79
2022/03/21 05:14:29;;;;;;;40.78;21.00;;;;;;;;;;7372078;19;20014;-76
2022/03/21 05:16:54;;;;;;;41.80;21.20;;;;;;;;;;7379126;19;20011;-75
2022/03/21 05:19:20;;;;;;;41.88;19.52;;;;;;;;;;7377908;19;20258;-78
2022/03/21 05:21:45;;;;;;;35.67;19.73;;;;;;;;;;7370164;19;20010;-75
2022/03/21 05:32:23;;;;;;;39.00;19.85;;;;;;;;;;7379923;19;20337;-75
2022/03/21 05:37:32;;;;;;;39.97;18.70;;;;;;;;;;7381190;19;20037;-74
2022/03/21 05:42:41;;;;;;;38.85;18.25;;;;;;;;;;7377389;19;20082;-77
2022/03/21 05:45:06;;;;;;;36.35;19.25;;;;;;;;;;7376417;19;20474;-76
2022/03/21 05:48:50;;;;;;;37.00;18.95;;;;;;;;;;7366016;19;20010;-76
2022/03/21 05:50:17;;;;;;;40.50;19.98;;;;;;;;;;7362506;19;20010;-74
2022/03/21 05:52:42;;;;;;;45.65;23.63;;;;;;;;;;7379053;19;20014;-74
2022/03/21 05:55:08;;;;;;;44.42;20.80;;;;;;;;;;7376199;19;20021;-77
2022/03/21 05:57:33;;;;;;;45.70;21.92;;;;;;;;;;7379805;19;20345;-75
2022/03/21 06:02:42;;;;;;;39.85;20.27;;;;;;;;;;7381585;19;20477;-74
2022/03/21 06:05:07;;;;;;;35.08;18.33;;;;;;;;;;7377185;19;20042;-74
2022/03/21 06:07:33;;;;;;;35.60;18.23;;;;;;;;;;7376359;19;20038;-76
2022/03/21 06:09:58;;;;;;;34.13;18.13;;;;;;;;;;7368153;19;20102;-73
2022/03/21 06:12:25;;;;;;;38.17;19.23;;;;;;;;;;7374451;19;20014;-78
2022/03/21 06:14:50;;;;;;;36.00;18.40;;;;;;;;;;7366132;19;20517;-74
2022/03/21 06:17:15;;;;;;;34.40;19.38;;;;;;;;;;7367341;19;20590;-76
2022/03/21 06:19:40;;;;;;;39.57;20.47;;;;;;;;;;7365554;19;20502;-77
2022/03/21 06:22:05;;;;;;;41.08;20.40;;;;;;;;;;7357822;19;20268;-74
2022/03/21 06:24:31;;;;;;;43.33;21.27;;;;;;;;;;7370115;19;20483;-78
2022/03/21 06:26:56;;;;;;;44.35;21.73;;;;;;;;;;7374284;19;20117;-78
2022/03/21 06:29:21;;;;;;;38.55;20.02;;;;;;;;;;7365055;19;20218;-76
2022/03/21 06:31:46;;;;;;;40.03;19.85;;;;;;;;;;7372620;19;19991;-76
2022/03/21 06:34:13;;;;;;;36.90;20.48;;;;;;;;;;7369893;19;20141;-79
2022/03/21 06:36:38;;;;;;;47.53;21.98;;;;;;;;;;7361469;19;20026;-76
2022/03/21 06:39:05;;;;;;;52.42;25.30;;;;;;;;;;7370286;19;20018;-79
2022/03/21 06:41:30;;;;;;;48.22;25.77;;;;;;;;;;7363962;19;20011;-77
2022/03/21 06:43:55;;;;;;;48.50;24.90;;;;;;;;;;7371392;19;20571;-79
2022/03/21 06:46:20;;;;;;;53.83;26.60;;;;;;;;;;7371820;19;19995;-77
2022/03/21 06:48:46;;;;;;;53.95;27.58;;;;;;;;;;7372718;19;20024;-79
2022/03/21 06:51:11;;;;;;;47.90;25.92;;;;;;;;;;7366030;19;20010;-78
2022/03/21 06:53:36;;;;;;;53.50;26.50;;;;;;;;;;7370944;19;20014;-75
2022/03/21 06:56:01;;;;;;;53.87;27.60;;;;;;;;;;7362482;19;20011;-77
2022/03/21 06:58:27;;;;;;;50.03;25.60;;;;;;;;;;7362899;19;20306;-80
2022/03/21 07:00:52;;;;;;;45.05;25.23;;;;;;;;;;7372051;19;20592;-74
2022/03/21 07:03:19;;;;;;;57.00;26.50;;;;;;;;;;7356177;19;20006;-75
2022/03/21 07:05:44;;;;;;;49.03;25.52;;;;;;;;;;7370330;19;20010;-75
2022/03/21 07:08:10;;;;;;;55.03;26.33;;;;;;;;;;7372676;19;20014;-74
2022/03/21 07:10:35;;;;;;;49.15;25.33;;;;;;;;;;7376370;19;19995;-78
2022/03/21 07:13:01;;;;;;;49.08;26.45;;;;;;;;;;7373379;19;20048;-74
2022/03/21 07:15:26;;;;;;;47.17;23.17;;;;;;;;;;7370374;19;20015;-73
2022/03/21 07:17:51;;;;;;;48.30;25.27;;;;;;;;;;7375704;19;20043;-78
2022/03/21 07:20:17;;;;;;;50.00;25.83;;;;;;;;;;7367063;19;20019;-74
2022/03/21 07:22:44;;;;;;;49.58;25.75;;;;;;;;;;7372239;19;20018;-73
2022/03/21 07:25:09;;;;;;;52.67;26.30;;;;;;;;;;7367231;19;20006;-73
2022/03/21 07:27:36;;;;;;;43.63;24.45;;;;;;;;;;7369810;19;20736;-79
2022/03/21 07:30:01;;;;;;;45.80;24.60;;;;;;;;;;7366848;19;20553;-74
2022/03/21 07:32:26;;;;;;;48.58;25.23;;;;;;;;;;7365710;19;20014;-77
2022/03/21 07:34:51;;;;;;;46.22;24.67;;;;;;;;;;7368066;19;20006;-78
2022/03/21 07:37:16;;;;;;;42.47;23.77;;;;;;;;;;7354820;19;20010;-74
2022/03/21 07:39:45;;;;;;;43.70;24.07;;;;;;;;;;7355765;19;20315;-77
2022/03/21 07:42:15;;;;;;;46.25;23.10;;;;;;;;;;7367966;19;21429;-76
2022/03/21 07:47:25;;;;;;;38.67;22.40;;;;;;;;;;7374950;19;20017;-78
2022/03/21 07:49:50;;;;;;;41.85;19.55;;;;;;;;;;7366314;19;20015;-76
2022/03/21 07:52:18;;;;;;;35.95;19.25;;;;;;;;;;7366752;19;20014;-79
2022/03/21 07:54:43;;;;;;;40.65;21.88;;;;;;;;;;7369422;19;20052;-77
2022/03/21 07:57:08;;;;;;;35.67;20.83;;;;;;;;;;7377638;19;20618;-77
2022/03/21 07:59:34;;;;;;;44.58;23.10;;;;;;;;;;7368251;19;20003;-76
2022/03/21 08:01:59;;;;;;;45.25;23.85;;;;;;;;;;7374775;19;20002;-78
2022/03/21 08:04:24;;;;;;;30.85;20.08;;;;;;;;;;7371703;19;20486;-76
2022/03/21 08:06:50;;;;;;;40.67;22.08;;;;;;;;;;7370341;19;20001;-77
2022/03/21 08:09:15;;;;;;;41.50;22.70;;;;;;;;;;7366892;19;20332;-77
2022/03/21 08:11:40;;;;;;;49.95;22.15;;;;;;;;;;7378001;19;20014;-75
2022/03/21 08:14:06;;;;;;;40.95;21.60;;;;;;;;;;7367167;19;20025;-77
2022/03/21 08:16:31;;;;;;;50.63;27.98;;;;;;;;;;7371220;19;20007;-76
2022/03/21 08:18:57;;;;;;;40.53;23.05;;;;;;;;;;7369193;19;20034;-77
2022/03/21 08:21:22;;;;;;;45.33;21.65;;;;;;;;;;7368761;19;20355;-76
2022/03/21 08:23:48;;;;;;;40.65;21.38;;;;;;;;;;7370634;19;20006;-79
2022/03/21 08:26:13;;;;;;;39.72;22.27;;;;;;;;;;7368665;19;20010;-77
2022/03/21 08:28:38;;;;;;;38.85;21.65;;;;;;;;;;7366280;19;20367;-76
2022/03/21 08:31:03;;;;;;;39.40;22.20;;;;;;;;;;7369510;19;20015;-76
2022/03/21 08:33:29;;;;;;;37.00;21.75;;;;;;;;;;7363565;19;20414;-79
2022/03/21 08:35:54;;;;;;;39.10;21.63;;;;;;;;;;7356886;19;20048;-77
2022/03/21 08:38:19;;;;;;;39.72;21.60;;;;;;;;;;7359735;19;20006;-77
2022/03/21 08:40:44;;;;;;;40.03;21.30;;;;;;;;;;7372013;19;20132;-79
2022/03/21 08:43:09;;;;;;;34.00;20.77;;;;;;;;;;7365106;19;20622;-80
2022/03/21 08:45:35;;;;;;;32.17;20.02;;;;;;;;;;7363568;19;20271;-76
2022/03/21 08:48:00;;;;;;;36.40;19.95;;;;;;;;;;7375924;19;20042;-77
2022/03/21 08:50:26;;;;;;;36.30;20.80;;;;;;;;;;7365873;19;20003;-76
2022/03/21 08:52:51;;;;;;;36.83;20.98;;;;;;;;;;7369271;19;20848;-80
2022/03/21 08:55:17;;;;;;;34.28;19.05;;;;;;;;;;7364916;19;20007;-76
2022/03/21 08:57:42;;;;;;;36.55;20.02;;;;;;;;;;7373101;19;20595;-77
2022/03/21 09:00:08;;;;;;;35.50;18.57;;;;;;;;;;7358360;19;20462;-78
2022/03/21 09:02:34;;;;;;;33.30;19.50;;;;;;;;;;7372320;19;20247;-79
2022/03/21 09:05:00;;;;;;;33.20;19.05;;;;;;;;;;7367359;19;20023;-80
2022/03/21 09:07:25;;;;;;;35.40;18.25;;;;;;;;;;7363350;19;20011;-79
2022/03/21 09:09:50;;;;;;;33.83;19.27;;;;;;;;;;7364439;19;20409;-80
2022/03/21 09:12:16;;;;;;;36.90;19.83;;;;;;;;;;7370845;19;20018;-78
2022/03/21 09:14:41;;;;;;;36.65;20.65;;;;;;;;;;7376324;19;20540;-76
2022/03/21 09:17:06;;;;;;;31.95;18.45;;;;;;;;;;7380561;19;20010;-77
2022/03/21 09:19:32;;;;;;;40.40;20.90;;;;;;;;;;7366115;19;20415;-75
2022/03/21 09:21:58;;;;;;;33.22;18.65;;;;;;;;;;7358115;19;19998;-79
2022/03/21 09:24:23;;;;;;;32.08;19.35;;;;;;;;;;7356071;19;20469;-79
2022/03/21 09:26:49;;;;;;;34.13;17.58;;;;;;;;;;7358965;19;20534;-76
2022/03/21 09:29:14;;;;;;;28.00;18.77;;;;;;;;;;7358973;19;20011;-78
2022/03/21 09:31:40;;;;;;;30.67;17.60;;;;;;;;;;7363459;19;20352;-78
2022/03/21 09:34:05;;;;;;;33.22;17.42;;;;;;;;;;7374566;19;20333;-77
2022/03/21 09:36:31;;;;;;;34.13;18.75;;;;;;;;;;7373407;19;20021;-77
2022/03/21 09:38:56;;;;;;;33.57;17.80;;;;;;;;;;7377227;19;20018;-79
2022/03/21 09:41:26;;;;;;;31.02;17.85;;;;;;;;;;7382479;19;20259;-76
2022/03/21 09:44:01;;;;;;;29.10;17.27;;;;;;;;;;7381877;19;20013;-76
2022/03/21 09:46:26;;;;;;;35.45;17.67;;;;;;;;;;7369710;19;20036;-76
2022/03/21 09:48:53;;;;;;;31.55;17.15;;;;;;;;;;7369569;19;20654;-77
2022/03/21 09:51:22;;;;;;;29.63;16.52;;;;;;;;;;7355230;19;20405;-77
2022/03/21 09:53:48;;;;;;;31.40;17.83;;;;;;;;;;7361088;19;20010;-79
2022/03/21 09:56:14;;;;;;;27.20;17.27;;;;;;;;;;7360305;19;20014;-78
2022/03/21 09:58:39;;;;;;;34.83;18.70;;;;;;;;;;7359327;19;20014;-77
2022/03/21 10:01:05;;;;;;;29.08;17.00;;;;;;;;;;7365326;19;20510;-80
2022/03/21 10:03:30;;;;;;;28.55;16.92;;;;;;;;;;7365504;19;20003;-78
2022/03/21 10:05:56;;;;;;;33.63;18.10;;;;;;;;;;7368577;19;20138;-80
2022/03/21 10:08:22;;;;;;;30.67;16.42;;;;;;;;;;7379348;19;20286;-78
2022/03/21 10:10:52;;;;;;;27.88;16.92;;;;;;;;;;7374125;19;20037;-78
2022/03/21 10:13:17;;;;;;;30.48;16.90;;;;;;;;;;7376609;19;20354;-76
2022/03/21 10:15:43;;;;;;;30.23;16.10;;;;;;;;;;7380459;19;20114;-77
2022/03/21 10:18:09;;;;;;;27.27;16.50;;;;;;;;;;7381510;19;20030;-77
2022/03/21 10:20:35;;;;;;;27.30;16.70;;;;;;;;;;7371300;19;20044;-78
2022/03/21 10:23:17;;;;;;;25.83;16.52;;;;;;;;;;7378972;19;20018;-77
2022/03/21 10:25:42;;;;;;;25.90;16.20;;;;;;;;;;7374365;19;20022;-76
2022/03/21 10:28:08;;;;;;;30.55;17.48;;;;;;;;;;7378832;19;20014;-76
2022/03/21 10:30:40;;;;;;;26.98;17.05;;;;;;;;;;7382773;19;20003;-76
2022/03/21 10:33:05;;;;;;;30.92;16.00;;;;;;;;;;7377324;19;20021;-76
2022/03/21 10:35:31;;;;;;;30.07;16.83;;;;;;;;;;7374298;19;20007;-78
2022/03/21 10:37:58;;;;;;;25.17;14.85;;;;;;;;;;7381342;19;20247;-79
2022/03/21 10:40:30;;;;;;;24.88;14.73;;;;;;;;;;7380073;19;20006;-76
2022/03/21 10:43:06;;;;;;;25.15;15.15;;;;;;;;;;7381771;19;20014;-78
2022/03/21 10:45:34;;;;;;;27.25;14.98;;;;;;;;;;7375445;19;20003;-77
2022/03/21 10:47:59;;;;;;;30.63;15.65;;;;;;;;;;7382181;19;20094;-76
2022/03/21 10:50:28;;;;;;;25.03;14.17;;;;;;;;;;7377702;19;20488;-76
2022/03/21 10:53:12;;;;;;;22.80;13.13;;;;;;;;;;7379815;19;20521;-76
2022/03/21 10:55:38;;;;;;;22.85;12.82;;;;;;;;;;7374320;19;19998;-75
2022/03/21 10:58:04;;;;;;;21.15;12.95;;;;;;;;;;7377553;19;20409;-74
2022/03/21 11:00:30;;;;;;;23.88;13.70;;;;;;;;;;7379687;19;20017;-75
2022/03/21 11:03:05;;;;;;;20.98;11.93;;;;;;;;;;7378580;19;20070;-79
2022/03/21 11:05:33;;;;;;;21.17;12.43;;;;;;;;;;7374280;19;20053;-74
2022/03/21 11:07:58;;;;;;;23.35;12.77;;;;;;;;;;7380159;19;20609;-75
2022/03/21 11:10:24;;;;;;;18.88;10.75;;;;;;;;;;7376319;19;20014;-79
2022/03/21 11:12:49;;;;;;;25.35;11.57;;;;;;;;;;7378514;19;20009;-75
2022/03/21 11:15:15;;;;;;;22.77;11.38;;;;;;;;;;7378843;19;20395;-75
2022/03/21 11:17:41;;;;;;;19.20;11.48;;;;;;;;;;7380690;19;20010;-77
2022/03/21 11:20:07;;;;;;;19.40;10.88;;;;;;;;;;7375561;19;20017;-76
2022/03/21 11:22:34;;;;;;;19.90;11.27;;;;;;;;;;7379594;19;20027;-75
2022/03/21 11:25:02;;;;;;;22.13;11.55;;;;;;;;;;7373345;19;20037;-79
2022/03/21 11:27:34;;;;;;;20.25;11.55;;;;;;;;;;7379196;19;20015;-76
2022/03/21 11:29:59;;;;;;;19.90;12.05;;;;;;;;;;7374690;19;20015;-74
2022/03/21 11:32:50;;;;;;;21.08;12.18;;;;;;;;;;7377309;19;20010;-77
2022/03/21 11:35:23;;;;;;;20.70;11.40;;;;;;;;;;7375628;19;20003;-78
2022/03/21 11:37:48;;;;;;;22.15;10.45;;;;;;;;;;7376956;19;20511;-74
2022/03/21 11:40:26;;;;;;;20.83;10.63;;;;;;;;;;7378844;19;19995;-76
2022/03/21 11:42:51;;;;;;;18.70;11.07;;;;;;;;;;7379623;19;20025;-76
2022/03/21 11:45:27;;;;;;;19.83;11.60;;;;;;;;;;7374608;19;20011;-75
2022/03/21 11:48:10;;;;;;;19.55;11.25;;;;;;;;;;7378760;19;20021;-76
2022/03/21 11:50:35;;;;;;;17.63;11.35;;;;;;;;;;7377593;19;20010;-74
2022/03/21 11:53:05;;;;;;;20.38;11.70;;;;;;;;;;7379094;19;20010;-74
2022/03/21 11:55:35;;;;;;;23.55;13.10;;;;;;;;;;7377286;19;20117;-76
2022/03/21 11:58:19;;;;;;;20.92;12.20;;;;;;;;;;7377970;19;20011;-76
2022/03/21 12:01:03;;;;;;;20.55;11.23;;;;;;;;;;7365617;19;20049;-75
2022/03/21 12:03:28;;;;;;;19.05;10.93;;;;;;;;;;7375561;19;20041;-79
2022/03/21 12:05:54;;;;;;;24.15;12.10;;;;;;;;;;7371995;19;20027;-75
2022/03/21 12:08:36;;;;;;;18.50;10.73;;;;;;;;;;7376293;19;20018;-74
2022/03/21 12:11:01;;;;;;;18.45;11.40;;;;;;;;;;7368419;19;20011;-75
2022/03/21 12:13:40;;;;;;;18.83;11.23;;;;;;;;;;7374194;19;20102;-75
2022/03/21 12:16:16;;;;;;;21.13;11.77;;;;;;;;;;7377110;19;20006;-75
2022/03/21 12:19:01;;;;;;;19.40;11.63;;;;;;;;;;7367995;19;20047;-79
2022/03/21 12:21:26;;;;;;;18.20;10.25;;;;;;;;;;7371730;19;20007;-75
2022/03/21 12:24:11;;;;;;;22.40;11.82;;;;;;;;;;7376785;19;20095;-75
2022/03/21 12:26:36;;;;;;;18.38;11.20;;;;;;;;;;7371785;19;20453;-74
2022/03/21 12:31:45;;;;;;;20.67;11.52;;;;;;;;;;7376854;19;20752;-77
2022/03/21 12:34:30;;;;;;;17.98;12.05;;;;;;;;;;7375250;19;20015;-75
2022/03/21 12:36:55;;;;;;;20.75;12.13;;;;;;;;;;7371486;19;20372;-76
2022/03/21 12:39:21;;;;;;;21.73;12.03;;;;;;;;;;7374772;19;20318;-75
2022/03/21 12:41:46;;;;;;;18.70;11.23;;;;;;;;;;7375211;19;20243;-76
2022/03/21 12:44:13;;;;;;;18.65;11.20;;;;;;;;;;7372079;19;20070;-78
2022/03/21 12:46:38;;;;;;;17.88;10.73;;;;;;;;;;7376368;19;20043;-76
2022/03/21 12:49:04;;;;;;;17.75;10.98;;;;;;;;;;7373779;19;20018;-77
2022/03/21 12:51:31;;;;;;;22.98;11.43;;;;;;;;;;7374576;19;20021;-76
2022/03/21 12:53:59;;;;;;;18.00;10.45;;;;;;;;;;7365030;19;20011;-76
2022/03/21 12:56:25;;;;;;;18.20;11.48;;;;;;;;;;7373956;19;20066;-76
2022/03/21 12:58:55;;;;;;;17.60;10.95;;;;;;;;;;7370421;19;20201;-76
2022/03/21 13:01:20;;;;;;;18.45;10.55;;;;;;;;;;7377043;19;20010;-75
2022/03/21 13:03:46;;;;;;;14.10;8.45;;;;;;;;;;7376672;19;19998;-76
2022/03/21 13:11:29;;;;;;;17.42;8.35;;;;;;;;;;7374256;19;19910;-75
2022/03/21 13:13:56;;;;;;;16.20;7.72;;;;;;;;;;7373819;19;20030;-78
2022/03/21 13:16:22;;;;;;;13.48;7.75;;;;;;;;;;7370857;19;20076;-77
2022/03/21 13:18:47;;;;;;;15.15;7.85;;;;;;;;;;7376229;19;20015;-78
2022/03/21 13:21:12;;;;;;;14.63;8.82;;;;;;;;;;7373161;19;20250;-79
2022/03/21 13:23:38;;;;;;;15.35;9.30;;;;;;;;;;7380349;19;20022;-78
2022/03/21 13:26:30;;;;;;;17.80;9.63;;;;;;;;;;7378413;19;20030;-76
2022/03/21 13:29:05;;;;;;;21.10;9.48;;;;;;;;;;7382162;19;20470;-77
2022/03/21 13:31:30;;;;;;;17.98;8.60;;;;;;;;;;7381033;19;20010;-75
2022/03/21 13:33:58;;;;;;;14.98;9.23;;;;;;;;;;7382000;19;20022;-75
2022/03/21 13:36:23;;;;;;;19.15;8.93;;;;;;;;;;7377332;19;20015;-75
2022/03/21 13:38:49;;;;;;;15.95;8.48;;;;;;;;;;7384806;19;20470;-75
2022/03/21 13:41:15;;;;;;;16.08;8.25;;;;;;;;;;7383979;19;20010;-75
2022/03/21 13:43:41;;;;;;;14.20;7.80;;;;;;;;;;7384691;19;20014;-76
2022/03/21 13:46:06;;;;;;;16.30;8.05;;;;;;;;;;7374061;19;20024;-80
2022/03/21 13:48:39;;;;;;;20.17;9.47;;;;;;;;;;7378774;19;20121;-75
2022/03/21 13:51:15;;;;;;;17.45;9.02;;;;;;;;;;7379189;19;20266;-75
2022/03/21 13:53:40;;;;;;;14.02;8.32;;;;;;;;;;7382025;19;20575;-75
2022/03/21 13:56:05;;;;;;;17.70;8.40;;;;;;;;;;7379265;19;20018;-75
2022/03/21 13:58:34;;;;;;;14.67;8.40;;;;;;;;;;7379063;19;20014;-77
2022/03/21 14:00:59;;;;;;;17.40;9.10;;;;;;;;;;7378488;19;20248;-78
2022/03/21 14:03:34;;;;;;;15.55;8.10;;;;;;;;;;7367143;19;20359;-77
2022/03/21 14:05:59;;;;;;;14.18;7.75;;;;;;;;;;7374006;19;20398;-77
2022/03/21 14:08:25;;;;;;;16.00;7.90;;;;;;;;;;7381629;19;20013;-74
2022/03/21 14:10:51;;;;;;;16.48;8.60;;;;;;;;;;7378375;19;20366;-75
2022/03/21 14:13:19;;;;;;;16.50;9.40;;;;;;;;;;7377800;19;20469;-77
2022/03/21 14:15:44;;;;;;;16.73;8.57;;;;;;;;;;7377662;19;20046;-75
2022/03/21 14:18:10;;;;;;;15.07;8.60;;;;;;;;;;7374971;19;20633;-76
2022/03/21 14:20:36;;;;;;;15.50;9.23;;;;;;;;;;7377590;19;20500;-75
2022/03/21 14:23:01;;;;;;;15.68;8.48;;;;;;;;;;7379483;19;20490;-75
2022/03/21 14:28:10;;;;;;;18.42;8.70;;;;;;;;;;7370558;19;20571;-76
2022/03/21 14:30:36;;;;;;;14.77;8.50;;;;;;;;;;7375849;19;20007;-76
2022/03/21 14:33:01;;;;;;;18.13;8.70;;;;;;;;;;7373022;19;20006;-75
2022/03/21 14:35:26;;;;;;;15.17;8.43;;;;;;;;;;7374948;19;20015;-76
2022/03/21 14:37:51;;;;;;;18.42;9.45;;;;;;;;;;7379538;19;20270;-74
2022/03/21 14:40:17;;;;;;;14.50;8.50;;;;;;;;;;7375760;19;20037;-74
2022/03/21 14:42:43;;;;;;;15.18;8.10;;;;;;;;;;7377230;19;20482;-75
2022/03/21 14:45:09;;;;;;;17.30;8.30;;;;;;;;;;7374102;19;20092;-75
2022/03/21 14:47:34;;;;;;;16.83;8.13;;;;;;;;;;7381747;19;20037;-75